createdAt,value
2022-08-24T00:01:37.669Z,14.73
2022-08-24T00:06:39.767Z,14.45
2022-08-24T00:11:42.156Z,14.25
2022-08-24T00:16:44.515Z,11.52
2022-08-24T00:21:46.824Z,13.00
2022-08-24T00:26:49.046Z,14.20
2022-08-24T00:31:51.307Z,9.95
2022-08-24T00:36:54.229Z,12.65
2022-08-24T00:41:56.347Z,15.93
2022-08-24T00:47:17.095Z,11.98
2022-08-24T00:52:25.875Z,12.60
2022-08-24T00:57:34.154Z,10.68
2022-08-24T01:02:42.387Z,12.30
2022-08-24T01:07:45.501Z,11.60
2022-08-24T01:12:59.923Z,9.63
2022-08-24T01:18:21.379Z,13.70
2022-08-24T01:23:45.666Z,12.30
2022-08-24T01:28:51.902Z,13.10
2022-08-24T01:33:55.528Z,18.98
2022-08-24T01:39:04.253Z,15.23
2022-08-24T01:44:07.216Z,15.80
2022-08-24T01:49:10.482Z,15.75
2022-08-24T01:54:14.378Z,14.82
2022-08-24T01:59:17.739Z,18.90
2022-08-24T02:04:20.714Z,14.27
2022-08-24T02:09:23.404Z,14.30
2022-08-24T02:14:33.013Z,18.33
2022-08-24T02:19:38.328Z,12.50
2022-08-24T02:24:41.654Z,12.80
2022-08-24T02:29:44.469Z,12.63
2022-08-24T02:34:46.913Z,13.85
2022-08-24T02:39:49.813Z,11.52
2022-08-24T02:44:55.421Z,13.13
2022-08-24T02:49:57.895Z,14.15
2022-08-24T02:55:00.767Z,10.10
2022-08-24T03:00:10.066Z,21.65
2022-08-24T03:05:15.712Z,13.95
2022-08-24T03:10:18.489Z,24.00
2022-08-24T03:15:24.651Z,23.02
2022-08-24T03:20:27.411Z,15.85
2022-08-24T03:25:33.836Z,18.20
2022-08-24T03:30:36.142Z,19.38
2022-08-24T03:35:39.304Z,14.85
2022-08-24T03:40:42.293Z,16.58
2022-08-24T03:45:45.417Z,17.02
2022-08-24T03:50:47.850Z,24.77
2022-08-24T03:55:50.297Z,18.83
2022-08-24T04:00:52.756Z,15.63
2022-08-24T04:05:55.120Z,15.65
2022-08-24T04:10:58.900Z,13.75
2022-08-24T04:16:06.841Z,11.77
2022-08-24T04:21:21.360Z,18.05
2022-08-24T04:26:44.780Z,19.63
2022-08-24T04:31:51.544Z,15.82
2022-08-24T04:36:53.973Z,17.80
2022-08-24T04:41:57.477Z,15.48
2022-08-24T04:47:08.604Z,15.40
2022-08-24T04:52:12.622Z,13.35
2022-08-24T04:57:18.304Z,16.60
2022-08-24T05:02:22.351Z,14.68
2022-08-24T05:07:26.593Z,18.52
2022-08-24T05:12:29.090Z,13.60
2022-08-24T05:17:35.571Z,14.30
2022-08-24T05:22:38.150Z,14.20
2022-08-24T05:27:40.572Z,19.83
2022-08-24T05:32:48.101Z,17.17
2022-08-24T05:37:50.722Z,14.88
2022-08-24T05:42:54.390Z,15.63
2022-08-24T05:47:57.510Z,17.35
2022-08-24T05:53:18.309Z,16.35
2022-08-24T05:58:22.966Z,11.93
2022-08-24T06:03:36.286Z,15.55
2022-08-24T06:08:42.766Z,8.45
2022-08-24T06:13:46.493Z,9.32
2022-08-24T06:18:56.908Z,14.27
2022-08-24T06:24:01.981Z,12.85
2022-08-24T06:29:05.112Z,11.32
2022-08-24T06:34:32.528Z,11.45
2022-08-24T06:39:36.079Z,12.10
2022-08-24T06:44:39.640Z,15.43
2022-08-24T06:49:50.805Z,12.85
2022-08-24T06:54:53.472Z,10.35
2022-08-24T06:59:56.149Z,11.13
2022-08-24T07:04:58.868Z,12.63
2022-08-24T07:10:34.681Z,9.90
2022-08-24T07:15:37.283Z,10.10
2022-08-24T07:20:47.768Z,9.57
2022-08-24T07:26:18.828Z,14.25
2022-08-24T07:31:25.232Z,10.05
2022-08-24T07:36:44.740Z,12.68
2022-08-24T07:47:34.745Z,14.88
2022-08-24T07:52:33.553Z,16.90
2022-08-24T07:57:38.701Z,12.57
2022-08-24T08:02:46.622Z,9.38
2022-08-24T08:07:52.413Z,12.45
2022-08-24T08:12:56.050Z,11.15
2022-08-24T08:17:59.064Z,11.88
2022-08-24T08:23:19.791Z,18.33
2022-08-24T08:28:36.234Z,12.25
2022-08-24T08:33:40.802Z,13.65
2022-08-24T08:38:44.517Z,14.45
2022-08-24T08:44:06.092Z,17.40
2022-08-24T08:49:45.217Z,16.10
2022-08-24T08:55:18.529Z,13.27
2022-08-24T09:00:56.606Z,20.90
2022-08-24T09:06:36.863Z,17.05
2022-08-24T09:11:50.579Z,22.13
2022-08-24T09:17:12.969Z,10.90
2022-08-24T09:22:18.298Z,13.02
2022-08-24T09:27:38.401Z,11.45
2022-08-24T09:32:59.200Z,14.00
2022-08-24T09:38:36.011Z,9.40
2022-08-24T09:44:26.597Z,11.90
2022-08-24T09:50:05.130Z,9.38
2022-08-24T09:55:16.873Z,16.08
2022-08-24T10:00:28.038Z,14.40
2022-08-24T10:05:56.639Z,10.48
2022-08-24T10:11:34.388Z,13.45
2022-08-24T10:17:14.325Z,15.13
2022-08-24T10:22:16.601Z,16.90
2022-08-24T10:27:53.934Z,16.77
2022-08-24T10:33:10.626Z,12.45
2022-08-24T10:38:50.895Z,17.25
2022-08-24T10:44:37.065Z,21.58
2022-08-24T10:50:06.671Z,18.90
2022-08-24T10:55:27.142Z,15.05
2022-08-24T11:00:30.717Z,19.92
2022-08-24T11:05:50.188Z,22.63
2022-08-24T11:11:04.978Z,20.05
2022-08-24T11:16:07.681Z,14.93
2022-08-24T11:21:10.217Z,16.88
2022-08-24T11:26:21.675Z,23.60
2022-08-24T11:31:41.225Z,13.82
2022-08-24T11:36:43.629Z,20.55
2022-08-24T11:41:56.293Z,24.77
2022-08-24T11:47:06.149Z,21.73
2022-08-24T11:52:18.756Z,23.52
2022-08-24T11:57:26.808Z,26.85
2022-08-24T12:02:39.519Z,32.97
2022-08-24T12:07:51.001Z,23.60
2022-08-24T12:13:26.339Z,38.10
2022-08-24T12:19:06.152Z,36.08
2022-08-24T12:24:29.598Z,36.47
2022-08-24T12:29:53.907Z,33.58
2022-08-24T12:35:02.964Z,29.15
2022-08-24T12:40:26.393Z,35.58
2022-08-24T12:45:30.359Z,28.80
2022-08-24T12:50:53.926Z,31.35
2022-08-24T12:56:06.459Z,35.50
2022-08-24T13:01:13.625Z,31.65
2022-08-24T13:06:49.325Z,32.65
2022-08-24T13:11:52.336Z,31.90
2022-08-24T13:16:57.292Z,23.63
2022-08-24T13:22:38.507Z,21.88
2022-08-24T13:27:41.804Z,34.38
2022-08-24T13:32:49.714Z,26.15
2022-08-24T13:38:39.842Z,28.80
2022-08-24T13:43:44.967Z,37.70
2022-08-24T13:49:02.070Z,22.67
2022-08-24T13:54:45.435Z,28.10
2022-08-24T14:00:01.961Z,21.80
2022-08-24T14:05:28.064Z,28.67
2022-08-24T14:10:59.718Z,30.90
2022-08-24T14:16:26.508Z,38.30
2022-08-24T14:21:46.834Z,32.88
2022-08-24T14:27:00.548Z,27.33
2022-08-24T14:32:12.553Z,26.98
2022-08-24T14:37:16.569Z,35.90
2022-08-24T14:42:59.614Z,34.60
2022-08-24T14:48:19.826Z,28.83
2022-08-24T14:53:40.294Z,34.92
2022-08-24T14:59:14.802Z,22.42
2022-08-24T15:04:42.881Z,29.10
2022-08-24T15:09:45.972Z,29.33
2022-08-24T15:14:53.650Z,37.90
2022-08-24T15:20:20.204Z,23.83
2022-08-24T15:25:43.010Z,27.10
2022-08-24T15:30:56.092Z,26.80
2022-08-24T15:36:13.351Z,24.70
2022-08-24T15:41:30.755Z,35.15
2022-08-24T15:46:37.399Z,33.55
2022-08-24T15:52:06.520Z,26.55
2022-08-24T15:57:31.088Z,25.65
2022-08-24T16:02:37.081Z,33.03
2022-08-24T16:08:02.794Z,29.65
2022-08-24T16:13:28.573Z,30.35
2022-08-24T16:18:55.545Z,25.05
2022-08-24T16:24:20.801Z,32.28
2022-08-24T16:29:35.313Z,24.02
2022-08-24T16:34:40.765Z,29.15
2022-08-24T16:39:43.595Z,37.25
2022-08-24T16:44:45.837Z,19.58
2022-08-24T16:49:48.950Z,24.55
2022-08-24T16:54:51.538Z,28.67
2022-08-24T16:59:53.921Z,25.45
2022-08-24T17:04:56.640Z,30.50
2022-08-24T17:10:03.001Z,24.92
2022-08-24T17:15:07.126Z,30.35
2022-08-24T17:20:11.359Z,27.33
2022-08-24T17:25:13.539Z,45.72
2022-08-24T17:30:20.414Z,31.02
2022-08-24T17:35:24.618Z,35.17
2022-08-24T17:40:30.276Z,30.88
2022-08-24T17:45:32.613Z,29.70
2022-08-24T17:50:35.977Z,30.23
2022-08-24T17:55:38.364Z,27.02
2022-08-24T18:00:40.588Z,22.08
2022-08-24T18:05:42.942Z,23.33
2022-08-24T18:10:45.544Z,34.00
2022-08-24T18:15:50.188Z,34.70
2022-08-24T18:20:52.618Z,40.55
2022-08-24T18:25:54.787Z,46.10
2022-08-24T18:30:57.029Z,37.47
2022-08-24T18:35:59.231Z,26.30
2022-08-24T18:41:02.084Z,51.25
2022-08-24T18:46:05.540Z,43.45
2022-08-24T18:51:07.976Z,43.90
2022-08-24T18:56:12.653Z,38.95
2022-08-24T19:01:15.149Z,23.17
2022-08-24T19:06:17.968Z,33.83
2022-08-24T19:11:24.206Z,36.00
2022-08-24T19:16:26.642Z,29.15
2022-08-24T19:21:33.876Z,52.20
2022-08-24T19:26:37.023Z,43.85
2022-08-24T19:31:39.292Z,56.45
2022-08-24T19:36:42.375Z,89.47
2022-08-24T19:41:48.885Z,37.35
2022-08-24T19:46:51.794Z,35.08
2022-08-24T19:51:54.946Z,36.55
2022-08-24T19:56:59.952Z,40.70
2022-08-24T20:02:02.361Z,29.05
2022-08-24T20:07:04.731Z,30.25
2022-08-24T20:12:07.200Z,32.47
2022-08-24T20:17:09.507Z,31.83
2022-08-24T20:22:20.440Z,29.45
2022-08-24T20:32:29.739Z,36.60
2022-08-24T20:37:33.701Z,44.15
2022-08-24T20:42:35.780Z,35.70
2022-08-24T20:47:52.218Z,35.92
2022-08-24T20:52:55.841Z,31.40
2022-08-24T20:58:03.746Z,31.48
2022-08-24T21:03:05.972Z,39.85
2022-08-24T21:08:08.487Z,34.83
2022-08-24T21:13:11.100Z,22.80
2022-08-24T21:18:13.525Z,33.47
2022-08-24T21:23:15.751Z,28.67
2022-08-24T21:28:20.217Z,38.40
2022-08-24T21:33:40.806Z,38.22
2022-08-24T21:38:45.239Z,36.70
2022-08-24T21:43:47.671Z,29.70
2022-08-24T21:48:49.813Z,30.67
2022-08-24T21:53:52.196Z,28.42
2022-08-24T21:59:00.717Z,31.45
2022-08-24T22:04:03.004Z,29.88
2022-08-24T22:09:05.832Z,30.45
2022-08-24T22:14:08.191Z,28.33
2022-08-24T22:19:11.562Z,33.58
2022-08-24T22:24:13.749Z,28.60
2022-08-24T22:29:16.148Z,29.48
2022-08-24T22:34:20.840Z,33.63
2022-08-24T22:39:23.470Z,31.67
2022-08-24T22:44:27.910Z,24.65
2022-08-24T22:49:33.047Z,39.05
2022-08-24T22:54:35.542Z,28.13
2022-08-24T22:59:41.936Z,27.92
2022-08-24T23:04:47.231Z,32.72
2022-08-24T23:09:49.829Z,32.25
2022-08-24T23:14:52.927Z,27.98
2022-08-24T23:20:01.263Z,30.95
2022-08-24T23:25:05.315Z,31.65
2022-08-24T23:30:12.553Z,29.98
2022-08-24T23:35:14.797Z,27.63
2022-08-24T23:40:19.097Z,27.67
2022-08-24T23:45:28.416Z,29.05
2022-08-24T23:50:33.788Z,32.20
2022-08-24T23:55:36.767Z,28.95
